sensor_id;sensor_type;location;lat;lon;timestamp;temperature;humidity
24224;DHT22;12359;49.716;9.212;2022-08-07T00:00:21;15.00;99.90
24224;DHT22;12359;49.716;9.212;2022-08-07T00:02:46;15.00;99.90
24224;DHT22;12359;49.716;9.212;2022-08-07T00:05:12;14.90;99.90
24224;DHT22;12359;49.716;9.212;2022-08-07T00:07:38;14.90;99.90
24224;DHT22;12359;49.716;9.212;2022-08-07T00:10:04;14.90;99.90
24224;DHT22;12359;49.716;9.212;2022-08-07T00:12:30;14.90;99.90
24224;DHT22;12359;49.716;9.212;2022-08-07T00:14:56;14.80;1.00
24224;DHT22;12359;49.716;9.212;2022-08-07T00:17:22;14.70;1.00
24224;DHT22;12359;49.716;9.212;2022-08-07T00:19:48;14.70;1.00
24224;DHT22;12359;49.716;9.212;2022-08-07T00:22:14;14.70;4.00
24224;DHT22;12359;49.716;9.212;2022-08-07T00:24:39;14.70;1.70
24224;DHT22;12359;49.716;9.212;2022-08-07T00:27:05;14.80;1.00
24224;DHT22;12359;49.716;9.212;2022-08-07T00:29:31;14.80;1.00
24224;DHT22;12359;49.716;9.212;2022-08-07T00:31:56;14.80;1.00
24224;DHT22;12359;49.716;9.212;2022-08-07T00:34:25;14.70;18.80
24224;DHT22;12359;49.716;9.212;2022-08-07T00:36:51;14.60;99.90
24224;DHT22;12359;49.716;9.212;2022-08-07T00:39:17;14.50;1.00
24224;DHT22;12359;49.716;9.212;2022-08-07T00:41:52;14.50;1.00
24224;DHT22;12359;49.716;9.212;2022-08-07T00:44:18;14.50;1.00
24224;DHT22;12359;49.716;9.212;2022-08-07T00:46:44;14.40;1.00
24224;DHT22;12359;49.716;9.212;2022-08-07T00:49:10;14.40;1.00
24224;DHT22;12359;49.716;9.212;2022-08-07T00:51:36;14.40;7.20
24224;DHT22;12359;49.716;9.212;2022-08-07T00:54:02;14.30;11.20
24224;DHT22;12359;49.716;9.212;2022-08-07T00:56:27;14.30;1.00
24224;DHT22;12359;49.716;9.212;2022-08-07T00:58:54;14.30;1.00
24224;DHT22;12359;49.716;9.212;2022-08-07T01:01:21;14.30;1.00
24224;DHT22;12359;49.716;9.212;2022-08-07T01:03:48;14.30;99.90
24224;DHT22;12359;49.716;9.212;2022-08-07T01:06:15;14.30;99.90
24224;DHT22;12359;49.716;9.212;2022-08-07T01:08:41;14.40;99.90
24224;DHT22;12359;49.716;9.212;2022-08-07T01:11:07;14.50;34.10
24224;DHT22;12359;49.716;9.212;2022-08-07T01:13:34;14.60;1.00
24224;DHT22;12359;49.716;9.212;2022-08-07T01:16:00;14.60;30.80
24224;DHT22;12359;49.716;9.212;2022-08-07T01:18:26;14.50;94.60
24224;DHT22;12359;49.716;9.212;2022-08-07T01:21:09;14.50;99.90
24224;DHT22;12359;49.716;9.212;2022-08-07T01:23:36;14.50;99.90
24224;DHT22;12359;49.716;9.212;2022-08-07T01:26:03;14.50;99.90
24224;DHT22;12359;49.716;9.212;2022-08-07T01:28:29;14.50;99.90
24224;DHT22;12359;49.716;9.212;2022-08-07T01:30:56;14.40;99.90
24224;DHT22;12359;49.716;9.212;2022-08-07T01:33:23;14.40;99.90
24224;DHT22;12359;49.716;9.212;2022-08-07T01:35:49;14.40;99.90
24224;DHT22;12359;49.716;9.212;2022-08-07T01:38:16;14.40;99.90
24224;DHT22;12359;49.716;9.212;2022-08-07T01:40:42;14.30;99.90
24224;DHT22;12359;49.716;9.212;2022-08-07T01:43:08;14.30;99.90
24224;DHT22;12359;49.716;9.212;2022-08-07T01:45:33;14.20;99.90
24224;DHT22;12359;49.716;9.212;2022-08-07T01:48:00;14.30;99.90
24224;DHT22;12359;49.716;9.212;2022-08-07T01:50:26;14.20;99.90
24224;DHT22;12359;49.716;9.212;2022-08-07T01:52:56;14.20;99.90
24224;DHT22;12359;49.716;9.212;2022-08-07T01:55:34;14.10;99.90
24224;DHT22;12359;49.716;9.212;2022-08-07T01:58:01;14.10;99.90
24224;DHT22;12359;49.716;9.212;2022-08-07T02:00:29;14.10;99.90
24224;DHT22;12359;49.716;9.212;2022-08-07T02:03:00;14.10;1.00
24224;DHT22;12359;49.716;9.212;2022-08-07T02:05:32;14.10;1.00
24224;DHT22;12359;49.716;9.212;2022-08-07T02:08:03;14.10;22.50
24224;DHT22;12359;49.716;9.212;2022-08-07T02:10:31;14.00;99.90
24224;DHT22;12359;49.716;9.212;2022-08-07T02:12:59;13.90;99.90
24224;DHT22;12359;49.716;9.212;2022-08-07T02:15:26;13.90;99.90
24224;DHT22;12359;49.716;9.212;2022-08-07T02:17:54;13.80;99.90
24224;DHT22;12359;49.716;9.212;2022-08-07T02:20:21;13.90;99.90
24224;DHT22;12359;49.716;9.212;2022-08-07T02:22:49;13.70;99.90
24224;DHT22;12359;49.716;9.212;2022-08-07T02:25:18;13.70;1.00
24224;DHT22;12359;49.716;9.212;2022-08-07T02:27:45;13.70;99.90
24224;DHT22;12359;49.716;9.212;2022-08-07T02:30:12;13.70;99.90
24224;DHT22;12359;49.716;9.212;2022-08-07T02:32:38;13.70;35.20
24224;DHT22;12359;49.716;9.212;2022-08-07T02:35:05;13.80;19.40
24224;DHT22;12359;49.716;9.212;2022-08-07T02:37:38;13.70;55.70
24224;DHT22;12359;49.716;9.212;2022-08-07T02:40:06;13.70;99.90
24224;DHT22;12359;49.716;9.212;2022-08-07T02:42:33;13.60;99.90
24224;DHT22;12359;49.716;9.212;2022-08-07T02:45:01;13.60;1.00
24224;DHT22;12359;49.716;9.212;2022-08-07T02:47:28;13.50;11.70
24224;DHT22;12359;49.716;9.212;2022-08-07T02:49:53;13.60;1.00
24224;DHT22;12359;49.716;9.212;2022-08-07T02:52:28;13.60;99.90
24224;DHT22;12359;49.716;9.212;2022-08-07T02:54:56;13.60;99.90
24224;DHT22;12359;49.716;9.212;2022-08-07T02:57:23;13.50;1.00
24224;DHT22;12359;49.716;9.212;2022-08-07T02:59:50;13.60;1.00
24224;DHT22;12359;49.716;9.212;2022-08-07T03:02:17;13.50;1.00
24224;DHT22;12359;49.716;9.212;2022-08-07T03:04:44;13.50;25.20
24224;DHT22;12359;49.716;9.212;2022-08-07T03:07:11;13.40;99.90
24224;DHT22;12359;49.716;9.212;2022-08-07T03:09:38;13.40;90.10
24224;DHT22;12359;49.716;9.212;2022-08-07T03:12:05;13.40;79.40
24224;DHT22;12359;49.716;9.212;2022-08-07T03:14:32;13.30;99.90
24224;DHT22;12359;49.716;9.212;2022-08-07T03:17:01;13.30;99.90
24224;DHT22;12359;49.716;9.212;2022-08-07T03:19:28;13.30;99.90
24224;DHT22;12359;49.716;9.212;2022-08-07T03:21:54;13.30;99.90
24224;DHT22;12359;49.716;9.212;2022-08-07T03:24:21;13.20;99.90
24224;DHT22;12359;49.716;9.212;2022-08-07T03:26:47;13.10;1.00
24224;DHT22;12359;49.716;9.212;2022-08-07T03:29:17;13.10;1.00
24224;DHT22;12359;49.716;9.212;2022-08-07T03:31:45;13.10;1.00
24224;DHT22;12359;49.716;9.212;2022-08-07T03:34:14;13.00;1.00
24224;DHT22;12359;49.716;9.212;2022-08-07T03:36:41;13.00;99.90
24224;DHT22;12359;49.716;9.212;2022-08-07T03:39:09;13.10;1.00
24224;DHT22;12359;49.716;9.212;2022-08-07T03:41:36;13.00;35.40
24224;DHT22;12359;49.716;9.212;2022-08-07T03:44:03;13.00;36.90
24224;DHT22;12359;49.716;9.212;2022-08-07T03:46:30;12.90;99.90
24224;DHT22;12359;49.716;9.212;2022-08-07T03:48:56;12.90;99.90
24224;DHT22;12359;49.716;9.212;2022-08-07T03:51:23;12.90;1.00
24224;DHT22;12359;49.716;9.212;2022-08-07T03:53:50;12.80;99.90
24224;DHT22;12359;49.716;9.212;2022-08-07T03:56:20;12.80;99.90
24224;DHT22;12359;49.716;9.212;2022-08-07T03:58:48;12.70;99.30
24224;DHT22;12359;49.716;9.212;2022-08-07T04:01:16;12.70;99.90
24224;DHT22;12359;49.716;9.212;2022-08-07T04:03:43;12.70;99.90
24224;DHT22;12359;49.716;9.212;2022-08-07T04:06:09;12.80;99.90
24224;DHT22;12359;49.716;9.212;2022-08-07T04:08:38;12.70;99.90
24224;DHT22;12359;49.716;9.212;2022-08-07T04:11:03;12.70;1.00
24224;DHT22;12359;49.716;9.212;2022-08-07T04:13:30;12.70;1.00
24224;DHT22;12359;49.716;9.212;2022-08-07T04:15:57;12.70;56.60
24224;DHT22;12359;49.716;9.212;2022-08-07T04:18:23;12.70;1.00
24224;DHT22;12359;49.716;9.212;2022-08-07T04:20:49;12.70;99.90
24224;DHT22;12359;49.716;9.212;2022-08-07T04:23:14;12.80;99.90
24224;DHT22;12359;49.716;9.212;2022-08-07T04:25:41;12.70;1.00
24224;DHT22;12359;49.716;9.212;2022-08-07T04:28:08;12.70;1.00
24224;DHT22;12359;49.716;9.212;2022-08-07T04:30:37;12.70;99.90
24224;DHT22;12359;49.716;9.212;2022-08-07T04:33:08;12.60;99.90
24224;DHT22;12359;49.716;9.212;2022-08-07T04:35:36;12.60;21.70
24224;DHT22;12359;49.716;9.212;2022-08-07T04:38:08;12.50;47.50
24224;DHT22;12359;49.716;9.212;2022-08-07T04:40:38;12.40;99.90
24224;DHT22;12359;49.716;9.212;2022-08-07T04:43:05;12.30;1.00
24224;DHT22;12359;49.716;9.212;2022-08-07T04:48:53;12.80;50.90
24224;DHT22;12359;49.716;9.212;2022-08-07T04:57:06;13.50;99.90
24224;DHT22;12359;49.716;9.212;2022-08-07T04:59:58;13.70;1.00
24224;DHT22;12359;49.716;9.212;2022-08-07T05:02:31;13.70;49.20
24224;DHT22;12359;49.716;9.212;2022-08-07T05:05:21;13.90;1.00
24224;DHT22;12359;49.716;9.212;2022-08-07T05:08:03;13.90;99.90
24224;DHT22;12359;49.716;9.212;2022-08-07T05:10:38;14.00;99.90
24224;DHT22;12359;49.716;9.212;2022-08-07T05:13:20;13.90;99.90
24224;DHT22;12359;49.716;9.212;2022-08-07T05:15:50;14.00;1.00
24224;DHT22;12359;49.716;9.212;2022-08-07T05:18:22;14.00;1.00
24224;DHT22;12359;49.716;9.212;2022-08-07T05:20:53;14.30;38.90
24224;DHT22;12359;49.716;9.212;2022-08-07T05:23:22;14.70;99.90
24224;DHT22;12359;49.716;9.212;2022-08-07T05:25:51;14.90;99.90
24224;DHT22;12359;49.716;9.212;2022-08-07T05:28:19;15.20;11.90
24224;DHT22;12359;49.716;9.212;2022-08-07T05:30:46;15.60;99.90
24224;DHT22;12359;49.716;9.212;2022-08-07T05:33:13;16.20;99.90
24224;DHT22;12359;49.716;9.212;2022-08-07T05:35:40;16.40;43.90
24224;DHT22;12359;49.716;9.212;2022-08-07T05:38:08;16.90;1.00
24224;DHT22;12359;49.716;9.212;2022-08-07T05:40:36;17.20;1.00
24224;DHT22;12359;49.716;9.212;2022-08-07T05:43:02;17.20;99.90
24224;DHT22;12359;49.716;9.212;2022-08-07T05:45:28;16.90;99.90
24224;DHT22;12359;49.716;9.212;2022-08-07T05:47:54;16.70;1.00
24224;DHT22;12359;49.716;9.212;2022-08-07T05:50:21;16.30;1.00
24224;DHT22;12359;49.716;9.212;2022-08-07T05:52:47;16.00;1.00
24224;DHT22;12359;49.716;9.212;2022-08-07T05:55:13;15.80;52.40
24224;DHT22;12359;49.716;9.212;2022-08-07T05:57:39;15.60;99.90
24224;DHT22;12359;49.716;9.212;2022-08-07T06:00:07;15.50;99.90
24224;DHT22;12359;49.716;9.212;2022-08-07T06:02:35;15.40;99.90
24224;DHT22;12359;49.716;9.212;2022-08-07T06:05:07;15.50;99.90
24224;DHT22;12359;49.716;9.212;2022-08-07T06:07:34;15.60;99.90
24224;DHT22;12359;49.716;9.212;2022-08-07T06:10:01;15.70;99.90
24224;DHT22;12359;49.716;9.212;2022-08-07T06:12:27;15.90;99.90
24224;DHT22;12359;49.716;9.212;2022-08-07T06:14:54;16.10;99.90
24224;DHT22;12359;49.716;9.212;2022-08-07T06:17:20;16.40;97.40
24224;DHT22;12359;49.716;9.212;2022-08-07T06:19:46;16.80;1.00
24224;DHT22;12359;49.716;9.212;2022-08-07T06:22:13;17.70;1.00
24224;DHT22;12359;49.716;9.212;2022-08-07T06:24:40;18.70;99.90
24224;DHT22;12359;49.716;9.212;2022-08-07T06:27:06;20.00;99.90
24224;DHT22;12359;49.716;9.212;2022-08-07T06:29:31;21.30;35.70
24224;DHT22;12359;49.716;9.212;2022-08-07T06:31:58;22.20;1.00
24224;DHT22;12359;49.716;9.212;2022-08-07T06:34:25;22.90;1.00
24224;DHT22;12359;49.716;9.212;2022-08-07T06:36:52;23.30;1.00
24224;DHT22;12359;49.716;9.212;2022-08-07T06:39:19;23.80;1.00
24224;DHT22;12359;49.716;9.212;2022-08-07T06:41:48;23.90;1.00
24224;DHT22;12359;49.716;9.212;2022-08-07T06:44:19;24.00;1.00
24224;DHT22;12359;49.716;9.212;2022-08-07T06:46:46;25.10;1.00
24224;DHT22;12359;49.716;9.212;2022-08-07T06:49:11;25.80;1.00
24224;DHT22;12359;49.716;9.212;2022-08-07T06:51:39;25.80;1.00
24224;DHT22;12359;49.716;9.212;2022-08-07T06:54:06;26.40;1.00
24224;DHT22;12359;49.716;9.212;2022-08-07T06:56:34;27.00;99.90
24224;DHT22;12359;49.716;9.212;2022-08-07T06:59:19;27.50;99.90
24224;DHT22;12359;49.716;9.212;2022-08-07T07:01:46;27.10;99.90
24224;DHT22;12359;49.716;9.212;2022-08-07T07:04:13;27.60;99.90
24224;DHT22;12359;49.716;9.212;2022-08-07T07:06:39;28.00;99.90
24224;DHT22;12359;49.716;9.212;2022-08-07T07:09:25;28.20;99.90
24224;DHT22;12359;49.716;9.212;2022-08-07T07:15:20;28.10;99.90
24224;DHT22;12359;49.716;9.212;2022-08-07T07:18:09;28.50;99.90
24224;DHT22;12359;49.716;9.212;2022-08-07T07:20:51;28.70;99.90
24224;DHT22;12359;49.716;9.212;2022-08-07T07:23:19;29.00;99.90
24224;DHT22;12359;49.716;9.212;2022-08-07T07:25:48;28.80;99.90
24224;DHT22;12359;49.716;9.212;2022-08-07T07:28:24;28.80;99.90
24224;DHT22;12359;49.716;9.212;2022-08-07T07:30:57;28.50;99.90
24224;DHT22;12359;49.716;9.212;2022-08-07T07:33:25;28.80;99.90
24224;DHT22;12359;49.716;9.212;2022-08-07T07:35:53;28.90;99.90
24224;DHT22;12359;49.716;9.212;2022-08-07T07:38:21;29.20;99.90
24224;DHT22;12359;49.716;9.212;2022-08-07T07:40:48;28.90;99.90
24224;DHT22;12359;49.716;9.212;2022-08-07T07:43:16;28.60;99.90
24224;DHT22;12359;49.716;9.212;2022-08-07T07:45:44;28.90;99.90
24224;DHT22;12359;49.716;9.212;2022-08-07T07:48:13;28.50;99.90
24224;DHT22;12359;49.716;9.212;2022-08-07T07:50:40;28.60;99.90
24224;DHT22;12359;49.716;9.212;2022-08-07T07:53:07;28.70;99.90
24224;DHT22;12359;49.716;9.212;2022-08-07T07:55:34;28.80;99.90
24224;DHT22;12359;49.716;9.212;2022-08-07T07:58:01;29.10;99.90
24224;DHT22;12359;49.716;9.212;2022-08-07T08:00:28;29.40;99.90
24224;DHT22;12359;49.716;9.212;2022-08-07T08:02:58;29.80;99.90
24224;DHT22;12359;49.716;9.212;2022-08-07T08:05:25;29.90;99.90
24224;DHT22;12359;49.716;9.212;2022-08-07T08:07:52;29.80;99.90
24224;DHT22;12359;49.716;9.212;2022-08-07T08:10:19;29.10;99.90
24224;DHT22;12359;49.716;9.212;2022-08-07T08:12:45;28.80;99.90
24224;DHT22;12359;49.716;9.212;2022-08-07T08:15:12;28.90;99.90
24224;DHT22;12359;49.716;9.212;2022-08-07T08:17:40;29.10;99.90
24224;DHT22;12359;49.716;9.212;2022-08-07T08:20:07;29.20;99.90
24224;DHT22;12359;49.716;9.212;2022-08-07T08:22:37;29.10;99.90
24224;DHT22;12359;49.716;9.212;2022-08-07T08:25:24;29.10;99.90
24224;DHT22;12359;49.716;9.212;2022-08-07T08:28:14;28.90;99.90
24224;DHT22;12359;49.716;9.212;2022-08-07T08:30:42;28.80;99.90
24224;DHT22;12359;49.716;9.212;2022-08-07T08:33:11;28.40;99.90
24224;DHT22;12359;49.716;9.212;2022-08-07T08:35:41;28.30;99.90
24224;DHT22;12359;49.716;9.212;2022-08-07T08:38:08;27.90;99.90
24224;DHT22;12359;49.716;9.212;2022-08-07T08:40:39;27.20;99.90
24224;DHT22;12359;49.716;9.212;2022-08-07T08:43:20;27.00;99.90
24224;DHT22;12359;49.716;9.212;2022-08-07T08:46:04;26.80;99.90
24224;DHT22;12359;49.716;9.212;2022-08-07T08:48:41;26.70;99.90
24224;DHT22;12359;49.716;9.212;2022-08-07T08:56:46;27.50;99.90
24224;DHT22;12359;49.716;9.212;2022-08-07T08:59:29;27.70;99.90
24224;DHT22;12359;49.716;9.212;2022-08-07T09:02:05;28.10;99.90
24224;DHT22;12359;49.716;9.212;2022-08-07T09:04:59;28.20;99.90
24224;DHT22;12359;49.716;9.212;2022-08-07T09:07:38;28.10;99.90
24224;DHT22;12359;49.716;9.212;2022-08-07T09:13:22;28.90;99.90
24224;DHT22;12359;49.716;9.212;2022-08-07T09:16:21;28.90;99.90
24224;DHT22;12359;49.716;9.212;2022-08-07T09:27:07;28.00;99.90
24224;DHT22;12359;49.716;9.212;2022-08-07T09:30:06;28.30;99.90
24224;DHT22;12359;49.716;9.212;2022-08-07T09:53:51;30.00;99.90
24224;DHT22;12359;49.716;9.212;2022-08-07T09:56:37;30.30;99.90
24224;DHT22;12359;49.716;9.212;2022-08-07T10:16:53;31.40;99.90
24224;DHT22;12359;49.716;9.212;2022-08-07T10:19:25;31.70;99.90
24224;DHT22;12359;49.716;9.212;2022-08-07T10:30:06;31.70;99.90
24224;DHT22;12359;49.716;9.212;2022-08-07T10:35:29;32.20;99.90
24224;DHT22;12359;49.716;9.212;2022-08-07T10:46:41;31.60;99.90
24224;DHT22;12359;49.716;9.212;2022-08-07T10:52:01;30.90;99.90
24224;DHT22;12359;49.716;9.212;2022-08-07T10:54:43;31.30;99.90
24224;DHT22;12359;49.716;9.212;2022-08-07T10:57:18;31.60;99.90
24224;DHT22;12359;49.716;9.212;2022-08-07T11:00:08;31.70;99.90
24224;DHT22;12359;49.716;9.212;2022-08-07T11:06:10;31.90;99.90
24224;DHT22;12359;49.716;9.212;2022-08-07T11:11:36;31.70;99.90
24224;DHT22;12359;49.716;9.212;2022-08-07T11:14:12;31.80;99.90
24224;DHT22;12359;49.716;9.212;2022-08-07T11:16:53;31.70;99.90
24224;DHT22;12359;49.716;9.212;2022-08-07T11:22:29;31.00;99.90
24224;DHT22;12359;49.716;9.212;2022-08-07T11:27:47;31.50;99.90
24224;DHT22;12359;49.716;9.212;2022-08-07T11:30:21;31.60;99.90
24224;DHT22;12359;49.716;9.212;2022-08-07T11:32:56;31.80;99.90
24224;DHT22;12359;49.716;9.212;2022-08-07T11:40:56;32.50;99.90
24224;DHT22;12359;49.716;9.212;2022-08-07T11:54:59;30.90;99.90
24224;DHT22;12359;49.716;9.212;2022-08-07T11:57:52;30.90;99.90
24224;DHT22;12359;49.716;9.212;2022-08-07T12:11:26;32.10;99.90
24224;DHT22;12359;49.716;9.212;2022-08-07T12:14:10;32.20;99.90
24224;DHT22;12359;49.716;9.212;2022-08-07T12:16:45;32.10;99.90
24224;DHT22;12359;49.716;9.212;2022-08-07T12:19:28;32.00;99.90
24224;DHT22;12359;49.716;9.212;2022-08-07T12:22:19;32.10;99.90
24224;DHT22;12359;49.716;9.212;2022-08-07T12:28:13;31.40;99.90
24224;DHT22;12359;49.716;9.212;2022-08-07T12:30:43;31.50;99.90
24224;DHT22;12359;49.716;9.212;2022-08-07T12:33:13;31.50;99.90
24224;DHT22;12359;49.716;9.212;2022-08-07T12:35:44;31.30;99.90
24224;DHT22;12359;49.716;9.212;2022-08-07T12:38:12;31.50;99.90
24224;DHT22;12359;49.716;9.212;2022-08-07T12:40:41;31.70;99.90
24224;DHT22;12359;49.716;9.212;2022-08-07T12:43:09;31.60;99.90
24224;DHT22;12359;49.716;9.212;2022-08-07T12:48:44;31.80;99.90
24224;DHT22;12359;49.716;9.212;2022-08-07T12:51:15;32.00;99.90
24224;DHT22;12359;49.716;9.212;2022-08-07T12:56:28;32.30;99.90
24224;DHT22;12359;49.716;9.212;2022-08-07T12:58:55;32.50;99.90
24224;DHT22;12359;49.716;9.212;2022-08-07T13:09:58;31.90;99.90
24224;DHT22;12359;49.716;9.212;2022-08-07T13:12:41;31.80;99.90
24224;DHT22;12359;49.716;9.212;2022-08-07T13:15:42;31.70;99.90
24224;DHT22;12359;49.716;9.212;2022-08-07T13:20:44;31.20;99.90
24224;DHT22;12359;49.716;9.212;2022-08-07T13:23:19;31.10;99.90
24224;DHT22;12359;49.716;9.212;2022-08-07T13:26:00;31.00;99.90
24224;DHT22;12359;49.716;9.212;2022-08-07T13:28:46;31.10;99.90
24224;DHT22;12359;49.716;9.212;2022-08-07T13:37:12;31.20;99.90
24224;DHT22;12359;49.716;9.212;2022-08-07T13:40:05;31.10;99.90
24224;DHT22;12359;49.716;9.212;2022-08-07T13:42:34;31.30;99.90
24224;DHT22;12359;49.716;9.212;2022-08-07T13:45:04;30.90;99.90
24224;DHT22;12359;49.716;9.212;2022-08-07T13:47:36;30.10;99.90
24224;DHT22;12359;49.716;9.212;2022-08-07T13:50:04;30.10;99.90
24224;DHT22;12359;49.716;9.212;2022-08-07T13:52:36;30.20;99.90
24224;DHT22;12359;49.716;9.212;2022-08-07T13:55:13;30.30;99.90
24224;DHT22;12359;49.716;9.212;2022-08-07T13:57:41;30.30;99.90
24224;DHT22;12359;49.716;9.212;2022-08-07T14:00:08;30.20;99.90
24224;DHT22;12359;49.716;9.212;2022-08-07T14:02:35;30.20;99.90
24224;DHT22;12359;49.716;9.212;2022-08-07T14:05:05;30.30;99.90
24224;DHT22;12359;49.716;9.212;2022-08-07T14:07:37;30.40;99.90
24224;DHT22;12359;49.716;9.212;2022-08-07T14:10:04;30.50;99.90
24224;DHT22;12359;49.716;9.212;2022-08-07T14:15:29;30.30;99.90
24224;DHT22;12359;49.716;9.212;2022-08-07T14:18:00;30.30;99.90
24224;DHT22;12359;49.716;9.212;2022-08-07T14:20:29;30.40;99.90
24224;DHT22;12359;49.716;9.212;2022-08-07T14:23:08;30.40;99.90
24224;DHT22;12359;49.716;9.212;2022-08-07T14:25:36;30.30;99.90
24224;DHT22;12359;49.716;9.212;2022-08-07T14:28:07;30.30;99.90
24224;DHT22;12359;49.716;9.212;2022-08-07T14:30:35;30.30;99.90
24224;DHT22;12359;49.716;9.212;2022-08-07T14:33:02;30.40;99.90
24224;DHT22;12359;49.716;9.212;2022-08-07T14:35:35;30.30;99.90
24224;DHT22;12359;49.716;9.212;2022-08-07T14:38:01;30.20;99.90
24224;DHT22;12359;49.716;9.212;2022-08-07T14:40:28;30.20;99.90
24224;DHT22;12359;49.716;9.212;2022-08-07T14:43:07;30.20;99.90
24224;DHT22;12359;49.716;9.212;2022-08-07T14:45:41;30.30;99.90
24224;DHT22;12359;49.716;9.212;2022-08-07T14:48:08;30.30;99.90
24224;DHT22;12359;49.716;9.212;2022-08-07T14:50:40;30.10;99.90
24224;DHT22;12359;49.716;9.212;2022-08-07T14:53:06;30.00;99.90
24224;DHT22;12359;49.716;9.212;2022-08-07T14:55:33;30.10;99.90
24224;DHT22;12359;49.716;9.212;2022-08-07T14:58:01;29.90;99.90
24224;DHT22;12359;49.716;9.212;2022-08-07T15:00:29;29.80;99.90
24224;DHT22;12359;49.716;9.212;2022-08-07T15:02:57;29.60;99.90
24224;DHT22;12359;49.716;9.212;2022-08-07T15:05:24;29.60;99.90
24224;DHT22;12359;49.716;9.212;2022-08-07T15:07:51;29.70;99.90
24224;DHT22;12359;49.716;9.212;2022-08-07T15:10:19;29.60;99.90
24224;DHT22;12359;49.716;9.212;2022-08-07T15:12:46;29.60;99.90
24224;DHT22;12359;49.716;9.212;2022-08-07T15:15:20;29.50;99.90
24224;DHT22;12359;49.716;9.212;2022-08-07T15:17:58;29.10;99.90
24224;DHT22;12359;49.716;9.212;2022-08-07T15:20:31;29.10;99.90
24224;DHT22;12359;49.716;9.212;2022-08-07T15:23:02;29.00;99.90
24224;DHT22;12359;49.716;9.212;2022-08-07T15:25:35;29.10;99.90
24224;DHT22;12359;49.716;9.212;2022-08-07T15:28:03;29.10;99.90
24224;DHT22;12359;49.716;9.212;2022-08-07T15:30:32;29.00;99.90
24224;DHT22;12359;49.716;9.212;2022-08-07T15:32:58;29.00;99.90
24224;DHT22;12359;49.716;9.212;2022-08-07T15:35:27;28.70;99.90
24224;DHT22;12359;49.716;9.212;2022-08-07T15:37:56;28.60;99.90
24224;DHT22;12359;49.716;9.212;2022-08-07T15:40:26;28.50;99.90
24224;DHT22;12359;49.716;9.212;2022-08-07T15:45:25;28.60;99.90
24224;DHT22;12359;49.716;9.212;2022-08-07T15:48:24;28.50;99.90
24224;DHT22;12359;49.716;9.212;2022-08-07T15:50:54;28.60;99.90
24224;DHT22;12359;49.716;9.212;2022-08-07T15:53:27;28.70;99.90
24224;DHT22;12359;49.716;9.212;2022-08-07T15:55:57;28.70;99.90
24224;DHT22;12359;49.716;9.212;2022-08-07T16:01:20;28.80;99.90
24224;DHT22;12359;49.716;9.212;2022-08-07T16:03:57;28.80;99.90
24224;DHT22;12359;49.716;9.212;2022-08-07T16:06:36;28.70;99.90
24224;DHT22;12359;49.716;9.212;2022-08-07T16:09:07;28.70;99.90
24224;DHT22;12359;49.716;9.212;2022-08-07T16:17:49;28.80;99.90
24224;DHT22;12359;49.716;9.212;2022-08-07T16:30:51;28.60;99.90
24224;DHT22;12359;49.716;9.212;2022-08-07T16:33:25;28.40;99.90
24224;DHT22;12359;49.716;9.212;2022-08-07T16:41:54;28.30;99.90
24224;DHT22;12359;49.716;9.212;2022-08-07T17:00:17;27.80;99.90
24224;DHT22;12359;49.716;9.212;2022-08-07T17:03:15;27.80;99.90
24224;DHT22;12359;49.716;9.212;2022-08-07T17:08:46;27.90;99.90
24224;DHT22;12359;49.716;9.212;2022-08-07T17:11:20;27.80;99.90
24224;DHT22;12359;49.716;9.212;2022-08-07T17:14:10;27.70;99.90
24224;DHT22;12359;49.716;9.212;2022-08-07T17:16:55;27.70;99.90
24224;DHT22;12359;49.716;9.212;2022-08-07T17:22:17;27.50;99.90
24224;DHT22;12359;49.716;9.212;2022-08-07T17:25:06;27.50;99.90
24224;DHT22;12359;49.716;9.212;2022-08-07T17:30:10;27.50;99.90
24224;DHT22;12359;49.716;9.212;2022-08-07T17:35:59;27.50;99.90
24224;DHT22;12359;49.716;9.212;2022-08-07T17:38:27;27.40;99.90
24224;DHT22;12359;49.716;9.212;2022-08-07T17:43:37;27.30;99.90
24224;DHT22;12359;49.716;9.212;2022-08-07T17:46:20;27.30;99.90
24224;DHT22;12359;49.716;9.212;2022-08-07T17:48:58;27.20;99.90
24224;DHT22;12359;49.716;9.212;2022-08-07T17:51:48;27.10;99.90
24224;DHT22;12359;49.716;9.212;2022-08-07T17:54:42;27.00;99.90
24224;DHT22;12359;49.716;9.212;2022-08-07T17:57:32;26.90;99.90
24224;DHT22;12359;49.716;9.212;2022-08-07T18:00:07;26.80;99.90
24224;DHT22;12359;49.716;9.212;2022-08-07T18:02:42;26.80;99.90
24224;DHT22;12359;49.716;9.212;2022-08-07T18:05:30;26.70;99.90
24224;DHT22;12359;49.716;9.212;2022-08-07T18:08:31;26.70;99.90
24224;DHT22;12359;49.716;9.212;2022-08-07T18:11:10;26.60;99.90
24224;DHT22;12359;49.716;9.212;2022-08-07T18:13:48;26.50;99.90
24224;DHT22;12359;49.716;9.212;2022-08-07T18:16:38;26.40;99.90
24224;DHT22;12359;49.716;9.212;2022-08-07T18:19:32;26.20;99.90
24224;DHT22;12359;49.716;9.212;2022-08-07T18:21:59;26.00;99.90
24224;DHT22;12359;49.716;9.212;2022-08-07T18:24:47;25.80;99.90
24224;DHT22;12359;49.716;9.212;2022-08-07T18:27:16;25.50;99.90
24224;DHT22;12359;49.716;9.212;2022-08-07T18:38:36;24.80;99.90
24224;DHT22;12359;49.716;9.212;2022-08-07T18:41:21;24.70;99.90
24224;DHT22;12359;49.716;9.212;2022-08-07T18:43:56;24.50;99.90
24224;DHT22;12359;49.716;9.212;2022-08-07T18:52:02;23.90;99.90
24224;DHT22;12359;49.716;9.212;2022-08-07T18:57:25;23.70;99.90
24224;DHT22;12359;49.716;9.212;2022-08-07T19:00:14;23.60;99.90
24224;DHT22;12359;49.716;9.212;2022-08-07T19:05:19;23.40;99.90
24224;DHT22;12359;49.716;9.212;2022-08-07T19:07:58;23.30;99.90
24224;DHT22;12359;49.716;9.212;2022-08-07T19:10:49;23.20;99.90
24224;DHT22;12359;49.716;9.212;2022-08-07T19:13:46;23.10;99.90
24224;DHT22;12359;49.716;9.212;2022-08-07T19:16:33;23.00;99.90
24224;DHT22;12359;49.716;9.212;2022-08-07T19:22:20;22.80;99.90
24224;DHT22;12359;49.716;9.212;2022-08-07T19:24:47;22.70;99.90
24224;DHT22;12359;49.716;9.212;2022-08-07T19:27:26;22.60;99.90
24224;DHT22;12359;49.716;9.212;2022-08-07T19:30:08;22.60;99.90
24224;DHT22;12359;49.716;9.212;2022-08-07T19:32:38;22.40;99.90
24224;DHT22;12359;49.716;9.212;2022-08-07T19:35:30;22.30;99.90
24224;DHT22;12359;49.716;9.212;2022-08-07T19:37:58;22.20;99.90
24224;DHT22;12359;49.716;9.212;2022-08-07T19:40:26;22.10;99.90
24224;DHT22;12359;49.716;9.212;2022-08-07T19:42:53;22.10;99.90
24224;DHT22;12359;49.716;9.212;2022-08-07T19:45:25;21.90;99.90
24224;DHT22;12359;49.716;9.212;2022-08-07T19:47:54;21.80;99.90
24224;DHT22;12359;49.716;9.212;2022-08-07T19:50:21;21.70;99.90
24224;DHT22;12359;49.716;9.212;2022-08-07T19:52:49;21.60;99.90
24224;DHT22;12359;49.716;9.212;2022-08-07T19:55:19;21.50;99.90
24224;DHT22;12359;49.716;9.212;2022-08-07T19:57:49;21.50;99.90
24224;DHT22;12359;49.716;9.212;2022-08-07T20:00:24;21.40;99.90